Sterrenberg, Netherlands
Current Conditions -  °F | °C
As of 5:55 PM on Saturday 25 Oct 2014 (Local Time) from EHDL Reporting Station
Haze Haze  
Wind Chill: 57°   Ceiling: 4000
Heat Index: 57°   Visibility: 3mi
Dew Point: 55°   Wind: 7mph
Humidity: 94%   Direction: 210°SSW
Pressure: 30.09"   Gusts: NA
Location:  51.99°N, 5.88°E
Report Text: EHDL 251555Z AUTO 21006KT 4800 BR FEW016 SCT035 BKN040 14/13 Q1019 GRN
Loading
Personal Weather Stations






























Interactive Weather Map
Tropical Storm Tracking
New forecast layout! Learn more

10-Day Weather Forecast

Advertisements
Track Severe Weather on mobile